createdAt,value
2023-04-15T00:01:38.079Z,9.60
2023-04-15T00:04:05.526Z,9.60
2023-04-15T00:06:33.010Z,10.20
2023-04-15T00:09:01.001Z,9.70
2023-04-15T00:11:28.870Z,9.60
2023-04-15T00:13:56.224Z,9.60
2023-04-15T00:16:23.704Z,9.50
2023-04-15T00:18:51.794Z,9.50
2023-04-15T00:21:19.244Z,9.40
2023-04-15T00:23:49.809Z,9.40
2023-04-15T00:26:17.155Z,9.50
2023-04-15T00:28:44.859Z,9.90
2023-04-15T00:31:12.414Z,9.70
2023-04-15T00:33:40.868Z,10.00
2023-04-15T00:36:08.726Z,9.90
2023-04-15T00:38:38.131Z,9.30
2023-04-15T00:41:05.723Z,9.30
2023-04-15T00:43:33.137Z,9.70
2023-04-15T00:46:02.401Z,9.40
2023-04-15T00:48:30.865Z,8.90
2023-04-15T00:50:58.404Z,9.30
2023-04-15T00:53:25.856Z,9.20
2023-04-15T00:55:54.292Z,9.60
2023-04-15T00:58:21.813Z,9.00
2023-04-15T01:00:49.634Z,9.10
2023-04-15T01:03:17.199Z,9.00
2023-04-15T01:05:44.887Z,9.00
2023-04-15T01:08:12.751Z,9.00
2023-04-15T01:10:40.363Z,9.10
2023-04-15T01:13:07.949Z,8.90
2023-04-15T01:15:36.570Z,10.30
2023-04-15T01:18:04.214Z,9.20
2023-04-15T01:20:32.137Z,8.90
2023-04-15T01:23:01.312Z,8.90
2023-04-15T01:25:33.659Z,8.80
2023-04-15T01:28:01.284Z,8.80
2023-04-15T01:30:29.222Z,8.90
2023-04-15T01:32:56.672Z,8.80
2023-04-15T01:35:24.136Z,8.80
2023-04-15T01:37:52.587Z,8.80
2023-04-15T01:40:20.525Z,9.70
2023-04-15T01:42:47.852Z,8.80
2023-04-15T01:45:16.723Z,8.80
2023-04-15T01:47:44.079Z,8.80
2023-04-15T01:50:11.643Z,8.60
2023-04-15T01:52:39.097Z,9.30
2023-04-15T01:55:08.060Z,8.70
2023-04-15T01:57:35.755Z,8.70
2023-04-15T02:00:03.673Z,10.10
2023-04-15T02:02:41.009Z,8.70
2023-04-15T02:05:08.910Z,8.70
2023-04-15T02:07:37.999Z,8.60
2023-04-15T02:10:05.660Z,8.60
2023-04-15T02:12:36.302Z,8.50
2023-04-15T02:15:04.380Z,8.50
2023-04-15T02:17:35.776Z,8.60
2023-04-15T02:20:06.170Z,8.60
2023-04-15T02:22:33.617Z,8.60
2023-04-15T02:25:01.207Z,8.50
2023-04-15T02:27:29.012Z,8.60
2023-04-15T02:29:56.544Z,9.90
2023-04-15T02:32:24.535Z,8.60
2023-04-15T02:34:52.643Z,10.10
2023-04-15T02:37:20.416Z,9.40
2023-04-15T02:39:48.070Z,9.30
2023-04-15T02:42:16.288Z,9.30
2023-04-15T02:44:44.368Z,8.40
2023-04-15T02:47:11.904Z,8.40
2023-04-15T02:49:40.187Z,8.40
2023-04-15T02:52:07.854Z,9.80
2023-04-15T02:54:35.430Z,10.10
2023-04-15T02:57:03.964Z,8.40
2023-04-15T02:59:31.367Z,8.30
2023-04-15T03:02:01.555Z,8.30
2023-04-15T03:04:30.809Z,8.30
2023-04-15T03:06:58.184Z,8.80
2023-04-15T03:09:26.842Z,8.20
2023-04-15T03:11:55.422Z,8.00
2023-04-15T03:14:23.460Z,9.50
2023-04-15T03:16:51.958Z,8.00
2023-04-15T03:19:19.496Z,9.40
2023-04-15T03:21:46.907Z,8.20
2023-04-15T03:24:14.778Z,9.10
2023-04-15T03:26:42.226Z,9.70
2023-04-15T03:29:13.027Z,9.50
2023-04-15T03:31:41.856Z,8.10
2023-04-15T03:34:09.217Z,8.10
2023-04-15T03:36:37.374Z,8.10
2023-04-15T03:39:04.709Z,9.60
2023-04-15T03:41:32.992Z,7.80
2023-04-15T03:44:00.579Z,8.00
2023-04-15T03:46:28.106Z,8.00
2023-04-15T03:48:55.500Z,7.80
2023-04-15T03:51:22.864Z,7.90
2023-04-15T03:53:50.202Z,8.60
2023-04-15T03:56:17.593Z,8.90
2023-04-15T03:58:44.883Z,7.80
2023-04-15T04:01:12.224Z,9.00
2023-04-15T04:03:39.715Z,7.90
2023-04-15T04:06:08.051Z,8.60
2023-04-15T04:08:35.646Z,7.60
2023-04-15T04:11:02.970Z,7.60
2023-04-15T04:13:30.488Z,7.60
2023-04-15T04:15:57.924Z,8.20
2023-04-15T04:18:25.391Z,7.30
2023-04-15T04:20:52.875Z,7.70
2023-04-15T04:23:20.728Z,8.60
2023-04-15T04:25:48.076Z,7.60
2023-04-15T04:28:15.512Z,8.10
2023-04-15T04:30:42.944Z,7.50
2023-04-15T04:33:10.370Z,8.90
2023-04-15T04:35:37.826Z,7.40
2023-04-15T04:38:05.211Z,9.10
2023-04-15T04:40:32.606Z,7.40
2023-04-15T04:43:00.407Z,8.40
2023-04-15T04:45:27.840Z,7.30
2023-04-15T04:47:56.094Z,7.20
2023-04-15T04:50:23.521Z,8.90
2023-04-15T04:52:51.181Z,9.10
2023-04-15T04:55:18.696Z,7.50
2023-04-15T04:57:46.137Z,7.40
2023-04-15T05:00:14.058Z,7.30
2023-04-15T05:02:44.113Z,7.20
2023-04-15T05:05:12.011Z,7.60
2023-04-15T05:07:39.718Z,6.90
2023-04-15T05:10:07.680Z,7.20
2023-04-15T05:12:37.358Z,7.20
2023-04-15T05:15:06.207Z,7.20
2023-04-15T05:17:35.300Z,7.20
2023-04-15T05:20:03.761Z,7.20
2023-04-15T05:22:31.148Z,5.20
2023-04-15T05:24:58.539Z,7.00
2023-04-15T05:27:26.046Z,7.70
2023-04-15T05:29:53.416Z,7.30
2023-04-15T05:32:20.860Z,7.70
2023-04-15T05:34:48.165Z,7.00
2023-04-15T05:37:15.677Z,7.00
2023-04-15T05:39:43.358Z,7.10
2023-04-15T05:42:10.727Z,7.80
2023-04-15T05:44:38.023Z,7.30
2023-04-15T05:47:05.997Z,7.70
2023-04-15T05:49:33.332Z,8.20
2023-04-15T05:52:00.743Z,7.40
2023-04-15T05:54:28.068Z,7.40
2023-04-15T05:56:56.387Z,7.70
2023-04-15T05:59:23.705Z,7.50
2023-04-15T06:01:52.192Z,7.60
2023-04-15T06:04:19.709Z,9.50
2023-04-15T06:06:47.222Z,9.80
2023-04-15T06:09:14.537Z,7.50
2023-04-15T06:11:41.903Z,9.80
2023-04-15T06:14:09.305Z,8.10
2023-04-15T06:16:36.739Z,7.80
2023-04-15T06:19:04.351Z,8.10
2023-04-15T06:21:31.921Z,9.60
2023-04-15T06:24:01.620Z,8.10
2023-04-15T06:26:29.020Z,8.90
2023-04-15T06:28:56.404Z,8.20
2023-04-15T06:31:23.840Z,9.10
2023-04-15T06:33:51.383Z,8.80
2023-04-15T06:36:18.652Z,8.40
2023-04-15T06:38:45.983Z,8.40
2023-04-15T06:41:13.427Z,8.60
2023-04-15T06:43:40.802Z,8.70
2023-04-15T06:46:08.212Z,8.70
2023-04-15T06:48:35.611Z,8.80
2023-04-15T06:51:04.076Z,9.70
2023-04-15T06:53:31.533Z,9.00
2023-04-15T06:55:58.828Z,9.20
2023-04-15T06:58:26.522Z,9.00
2023-04-15T07:00:53.933Z,9.40
2023-04-15T07:03:21.358Z,9.60
2023-04-15T07:05:48.918Z,9.60
2023-04-15T07:08:16.239Z,10.20
2023-04-15T07:10:43.581Z,9.80
2023-04-15T07:13:11.354Z,9.90
2023-04-15T07:15:38.710Z,10.80
2023-04-15T07:18:06.494Z,10.10
2023-04-15T07:20:33.891Z,10.10
2023-04-15T07:23:01.224Z,10.50
2023-04-15T07:25:28.599Z,10.50
2023-04-15T07:27:56.306Z,10.50
2023-04-15T07:30:23.779Z,10.60
2023-04-15T07:32:51.357Z,10.70
2023-04-15T07:35:21.423Z,10.70
2023-04-15T07:37:48.987Z,10.70
2023-04-15T07:40:16.476Z,10.80
2023-04-15T07:42:44.242Z,11.00
2023-04-15T07:45:12.857Z,11.10
2023-04-15T07:47:42.060Z,11.20
2023-04-15T07:50:13.312Z,11.30
2023-04-15T07:52:40.753Z,11.40
2023-04-15T07:55:09.448Z,11.50
2023-04-15T07:57:37.467Z,11.50
2023-04-15T08:00:07.584Z,11.80
2023-04-15T08:02:42.873Z,11.70
2023-04-15T08:05:11.011Z,11.80
2023-04-15T08:07:39.746Z,11.90
2023-04-15T08:10:08.291Z,11.90
2023-04-15T08:12:35.893Z,11.90
2023-04-15T08:15:03.924Z,12.00
2023-04-15T08:17:31.293Z,12.10
2023-04-15T08:19:58.653Z,12.20
2023-04-15T08:22:26.077Z,12.40
2023-04-15T08:24:53.458Z,12.40
2023-04-15T08:27:20.766Z,12.50
2023-04-15T08:29:48.062Z,12.40
2023-04-15T08:32:16.156Z,12.60
2023-04-15T08:34:43.518Z,12.60
2023-04-15T08:37:12.579Z,12.70
2023-04-15T08:39:40.165Z,12.90
2023-04-15T08:42:16.492Z,12.80
2023-04-15T08:44:44.715Z,12.90
2023-04-15T08:47:14.945Z,13.00
2023-04-15T08:49:43.365Z,13.10
2023-04-15T08:52:10.775Z,13.30
2023-04-15T08:54:38.764Z,13.30
2023-04-15T08:57:06.978Z,13.40
2023-04-15T08:59:35.624Z,13.50
2023-04-15T09:02:05.056Z,13.50
2023-04-15T09:04:32.871Z,13.50
2023-04-15T09:07:00.449Z,13.50
2023-04-15T09:09:27.962Z,13.50
2023-04-15T09:11:55.953Z,13.60
2023-04-15T09:14:23.340Z,13.70
2023-04-15T09:17:04.585Z,13.90
2023-04-15T09:19:34.370Z,13.80
2023-04-15T09:22:02.499Z,13.80
2023-04-15T09:24:39.263Z,13.80
2023-04-15T09:27:06.963Z,13.80
2023-04-15T09:29:34.548Z,14.40
2023-04-15T09:32:12.170Z,14.20
2023-04-15T09:34:39.637Z,13.90
2023-04-15T09:37:08.051Z,14.30
2023-04-15T09:39:48.657Z,13.90
2023-04-15T09:42:17.691Z,14.00
2023-04-15T09:44:49.490Z,14.00
2023-04-15T09:47:32.964Z,13.50
2023-04-15T09:50:01.676Z,13.90
2023-04-15T09:52:30.258Z,13.90
2023-04-15T09:54:59.129Z,13.80
2023-04-15T09:57:35.007Z,13.90
2023-04-15T10:00:05.192Z,14.00
2023-04-15T10:02:34.208Z,14.00
2023-04-15T10:05:06.001Z,14.00
2023-04-15T10:07:34.173Z,14.20
2023-04-15T10:10:02.544Z,14.30
2023-04-15T10:12:31.180Z,14.50
2023-04-15T10:15:05.232Z,14.50
2023-04-15T10:17:35.418Z,14.70
2023-04-15T10:20:05.256Z,14.70
2023-04-15T10:22:33.220Z,14.70
2023-04-15T10:25:01.259Z,14.70
2023-04-15T10:27:29.213Z,14.70
2023-04-15T10:29:58.102Z,14.80
2023-04-15T10:32:26.406Z,15.00
2023-04-15T10:34:54.987Z,15.10
2023-04-15T10:37:33.282Z,15.20
2023-04-15T10:40:00.686Z,15.30
2023-04-15T10:42:35.459Z,15.40
2023-04-15T10:45:03.570Z,15.30
2023-04-15T10:47:32.809Z,15.30
2023-04-15T10:50:02.441Z,15.30
2023-04-15T10:52:30.290Z,15.30
2023-04-15T10:55:17.859Z,15.30
2023-04-15T10:57:45.579Z,15.40
2023-04-15T11:00:15.856Z,15.50
2023-04-15T11:02:57.887Z,15.40
2023-04-15T11:05:55.917Z,15.50
2023-04-15T11:08:56.708Z,15.50
2023-04-15T11:11:44.938Z,15.40
2023-04-15T11:14:16.387Z,15.40
2023-04-15T11:16:47.072Z,15.40
2023-04-15T11:19:14.572Z,15.50
2023-04-15T11:21:42.185Z,15.70
2023-04-15T11:24:10.862Z,15.70
2023-04-15T11:26:38.301Z,15.70
2023-04-15T11:29:05.862Z,15.60
2023-04-15T11:31:33.345Z,15.60
2023-04-15T11:34:02.285Z,15.70
2023-04-15T11:36:32.219Z,15.70
2023-04-15T11:39:00.759Z,15.70
2023-04-15T11:41:28.146Z,15.70
2023-04-15T11:43:56.290Z,15.60
2023-04-15T11:46:31.263Z,15.60
2023-04-15T11:48:58.668Z,15.90
2023-04-15T11:51:26.053Z,15.60
2023-04-15T11:53:54.783Z,15.40
2023-04-15T11:56:26.491Z,15.60
2023-04-15T11:58:57.205Z,15.80
2023-04-15T12:01:43.855Z,15.80
2023-04-15T12:04:25.238Z,15.90
2023-04-15T12:06:53.038Z,15.90
2023-04-15T12:09:21.640Z,15.90
2023-04-15T12:11:51.218Z,16.00
2023-04-15T12:14:31.103Z,14.10
2023-04-15T12:17:04.821Z,16.00
2023-04-15T12:19:37.678Z,15.80
2023-04-15T12:22:25.472Z,16.00
2023-04-15T12:24:57.340Z,16.00
2023-04-15T12:27:29.199Z,15.90
2023-04-15T12:30:07.924Z,15.90
2023-04-15T12:32:35.876Z,15.90
2023-04-15T12:35:03.364Z,15.90
2023-04-15T12:37:30.735Z,16.00
2023-04-15T12:39:58.144Z,15.90
2023-04-15T12:42:25.488Z,15.80
2023-04-15T12:44:52.848Z,15.70
2023-04-15T12:47:20.336Z,16.00
2023-04-15T12:49:49.748Z,16.10
2023-04-15T12:52:17.163Z,16.70
2023-04-15T12:54:44.704Z,16.20
2023-04-15T12:57:12.337Z,15.90
2023-04-15T12:59:39.853Z,15.90
2023-04-15T13:02:07.331Z,15.60
2023-04-15T13:04:34.860Z,15.40
2023-04-15T13:07:02.858Z,15.40
2023-04-15T13:09:31.010Z,15.70
2023-04-15T13:11:58.389Z,16.00
2023-04-15T13:14:25.810Z,16.00
2023-04-15T13:16:53.947Z,16.20
2023-04-15T13:19:21.324Z,16.30
2023-04-15T13:21:48.714Z,16.50
2023-04-15T13:24:17.358Z,16.60
2023-04-15T13:26:44.812Z,17.10
2023-04-15T13:29:13.466Z,16.80
2023-04-15T13:31:41.046Z,16.80
2023-04-15T13:34:08.506Z,16.80
2023-04-15T13:36:35.870Z,16.80
2023-04-15T13:39:05.437Z,16.70
2023-04-15T13:41:32.992Z,16.40
2023-04-15T13:44:00.561Z,16.30
2023-04-15T13:46:28.064Z,16.30
2023-04-15T13:48:55.653Z,16.00
2023-04-15T13:51:23.021Z,15.90
2023-04-15T13:53:50.374Z,15.80
2023-04-15T13:56:17.766Z,15.70
2023-04-15T13:58:45.135Z,15.60
2023-04-15T14:01:12.576Z,15.60
2023-04-15T14:03:40.327Z,15.70
2023-04-15T14:06:08.760Z,15.80
2023-04-15T14:08:36.216Z,16.10
2023-04-15T14:11:03.855Z,15.90
2023-04-15T14:13:31.410Z,15.90
2023-04-15T14:15:58.803Z,15.80
2023-04-15T14:18:26.281Z,15.80
2023-04-15T14:20:53.752Z,15.80
2023-04-15T14:23:21.306Z,15.80
2023-04-15T14:25:48.672Z,15.70
2023-04-15T14:28:16.509Z,15.60
2023-04-15T14:30:44.032Z,15.50
2023-04-15T14:33:11.758Z,15.40
2023-04-15T14:35:39.349Z,15.20
2023-04-15T14:38:10.473Z,15.70
2023-04-15T14:40:37.945Z,15.10
2023-04-15T14:43:05.472Z,15.00
2023-04-15T14:45:33.144Z,14.90
2023-04-15T14:48:00.923Z,15.00
2023-04-15T14:50:28.538Z,15.40
2023-04-15T14:52:55.946Z,14.70
2023-04-15T14:55:23.275Z,14.60
2023-04-15T14:57:50.931Z,14.50
2023-04-15T15:00:18.302Z,14.60
2023-04-15T15:02:47.445Z,14.60
2023-04-15T15:05:15.196Z,14.70
2023-04-15T15:07:42.597Z,14.70
2023-04-15T15:10:10.311Z,14.60
2023-04-15T15:12:37.741Z,14.50
2023-04-15T15:15:15.512Z,15.00
2023-04-15T15:17:47.503Z,14.30
2023-04-15T15:20:16.612Z,14.30
2023-04-15T15:22:44.141Z,14.30
2023-04-15T15:25:11.547Z,14.30
2023-04-15T15:27:38.988Z,14.30
2023-04-15T15:30:07.110Z,14.20
2023-04-15T15:32:34.882Z,14.20
2023-04-15T15:35:02.459Z,14.10
2023-04-15T15:37:31.538Z,14.00
2023-04-15T15:39:59.203Z,14.00
2023-04-15T15:42:26.903Z,13.90
2023-04-15T15:44:54.244Z,13.90
2023-04-15T15:47:23.062Z,13.90
2023-04-15T15:49:50.500Z,13.80
2023-04-15T15:52:18.020Z,13.70
2023-04-15T15:54:45.525Z,13.60
2023-04-15T15:57:12.926Z,13.60
2023-04-15T15:59:43.506Z,13.50
2023-04-15T16:02:12.118Z,13.50
2023-04-15T16:04:40.425Z,13.40
2023-04-15T16:07:07.926Z,13.30
2023-04-15T16:09:35.435Z,13.20
2023-04-15T16:12:03.996Z,13.10
2023-04-15T16:14:31.397Z,13.00
2023-04-15T16:16:58.794Z,13.00
2023-04-15T16:19:26.320Z,13.00
2023-04-15T16:21:54.382Z,12.90
2023-04-15T16:24:21.787Z,12.90
2023-04-15T16:26:49.142Z,12.90
2023-04-15T16:29:16.558Z,13.20
2023-04-15T16:31:43.966Z,12.80
2023-04-15T16:34:12.021Z,12.70
2023-04-15T16:36:40.700Z,12.70
2023-04-15T16:39:08.056Z,12.80
2023-04-15T16:41:35.621Z,12.60
2023-04-15T16:44:03.322Z,12.50
2023-04-15T16:46:31.831Z,12.40
2023-04-15T16:48:59.272Z,12.30
2023-04-15T16:51:27.561Z,12.30
2023-04-15T16:53:54.927Z,12.30
2023-04-15T16:56:22.549Z,12.30
2023-04-15T16:58:49.839Z,13.00
2023-04-15T17:01:17.380Z,12.30
2023-04-15T17:03:45.891Z,12.30
2023-04-15T17:06:17.260Z,12.20
2023-04-15T17:08:44.859Z,12.30
2023-04-15T17:11:12.539Z,12.20
2023-04-15T17:13:39.949Z,12.00
2023-04-15T17:16:07.768Z,11.90
2023-04-15T17:18:35.375Z,11.80
2023-04-15T17:21:02.789Z,11.70
2023-04-15T17:23:30.928Z,11.70
2023-04-15T17:25:58.247Z,11.60
2023-04-15T17:28:25.668Z,11.60
2023-04-15T17:30:53.093Z,11.90
2023-04-15T17:34:00.243Z,11.50
2023-04-15T17:36:08.775Z,11.40
2023-04-15T17:38:36.147Z,11.30
2023-04-15T17:41:04.807Z,11.70
2023-04-15T17:43:32.321Z,11.20
2023-04-15T17:45:59.793Z,11.30
2023-04-15T17:48:27.488Z,11.30
2023-04-15T17:50:54.917Z,11.30
2023-04-15T17:53:22.317Z,12.50
2023-04-15T17:55:53.142Z,11.20
2023-04-15T17:58:20.579Z,11.20
2023-04-15T18:00:48.250Z,11.20
2023-04-15T18:03:15.885Z,11.10
2023-04-15T18:05:43.446Z,11.80
2023-04-15T18:08:10.951Z,11.70
2023-04-15T18:10:38.810Z,11.00
2023-04-15T18:13:06.587Z,10.90
2023-04-15T18:15:34.663Z,11.70
2023-04-15T18:18:02.915Z,11.00
2023-04-15T18:20:30.488Z,10.80
2023-04-15T18:22:58.096Z,10.80
2023-04-15T18:25:26.606Z,10.80
2023-04-15T18:27:55.012Z,10.90
2023-04-15T18:30:23.452Z,11.70
2023-04-15T18:32:50.950Z,10.70
2023-04-15T18:35:18.573Z,10.70
2023-04-15T18:37:45.953Z,10.50
2023-04-15T18:40:13.493Z,10.50
2023-04-15T18:42:40.820Z,10.50
2023-04-15T18:45:08.759Z,10.50
2023-04-15T18:47:36.148Z,10.50
2023-04-15T18:50:03.658Z,10.50
2023-04-15T18:52:31.443Z,10.30
2023-04-15T18:54:58.962Z,10.30
2023-04-15T18:57:32.343Z,10.20
2023-04-15T19:00:02.389Z,10.30
2023-04-15T19:02:29.810Z,10.30
2023-04-15T19:04:57.232Z,10.60
2023-04-15T19:07:24.939Z,10.20
2023-04-15T19:09:53.165Z,10.10
2023-04-15T19:12:20.753Z,10.60
2023-04-15T19:14:48.122Z,8.70
2023-04-15T19:17:15.648Z,10.60
2023-04-15T19:19:43.617Z,10.10
2023-04-15T19:22:11.263Z,10.10
2023-04-15T19:24:38.734Z,10.10
2023-04-15T19:27:06.160Z,10.00
2023-04-15T19:29:33.635Z,10.70
2023-04-15T19:32:01.179Z,10.60
2023-04-15T19:34:28.540Z,10.00
2023-04-15T19:36:56.645Z,10.10
2023-04-15T19:39:24.236Z,10.30
2023-04-15T19:41:55.164Z,10.10
2023-04-15T19:44:22.669Z,10.00
2023-04-15T19:46:51.473Z,10.00
2023-04-15T19:49:19.579Z,10.30
2023-04-15T19:51:49.441Z,10.30
2023-04-15T19:54:17.100Z,10.60
2023-04-15T19:56:44.467Z,10.00
2023-04-15T19:59:12.818Z,10.00
2023-04-15T20:01:40.341Z,9.90
2023-04-15T20:04:08.016Z,9.90
2023-04-15T20:06:35.750Z,9.90
2023-04-15T20:09:03.339Z,10.00
2023-04-15T20:12:46.228Z,11.20
2023-04-15T20:14:18.303Z,9.90
2023-04-15T20:16:45.791Z,10.00
2023-04-15T20:19:13.895Z,9.80
2023-04-15T20:21:41.318Z,10.10
2023-04-15T20:24:08.955Z,9.80
2023-04-15T20:26:36.309Z,9.80
2023-04-15T20:29:04.072Z,9.80
2023-04-15T20:31:32.002Z,7.60
2023-04-15T20:33:59.410Z,9.80
2023-04-15T20:36:26.824Z,9.80
2023-04-15T20:38:54.153Z,10.70
2023-04-15T20:41:22.087Z,9.80
2023-04-15T20:43:49.406Z,9.70
2023-04-15T20:46:21.117Z,9.70
2023-04-15T20:48:49.075Z,9.70
2023-04-15T20:51:16.602Z,9.60
2023-04-15T20:53:43.978Z,9.70
2023-04-15T20:56:11.570Z,9.60
2023-04-15T20:58:39.328Z,10.30
2023-04-15T21:01:06.789Z,9.90
2023-04-15T21:03:35.316Z,11.40
2023-04-15T21:06:02.965Z,9.60
2023-04-15T21:08:31.523Z,9.50
2023-04-15T21:10:58.874Z,9.60
2023-04-15T21:13:26.589Z,9.60
2023-04-15T21:15:54.502Z,9.50
2023-04-15T21:18:22.530Z,10.50
2023-04-15T21:21:02.857Z,9.70
2023-04-15T21:23:30.949Z,9.60
2023-04-15T21:25:59.135Z,9.50
2023-04-15T21:28:28.092Z,9.60
2023-04-15T21:30:56.779Z,9.60
2023-04-15T21:33:24.362Z,9.60
2023-04-15T21:35:54.488Z,10.00
2023-04-15T21:38:23.371Z,9.50
2023-04-15T21:40:51.244Z,10.40
2023-04-15T21:43:18.792Z,10.50
2023-04-15T21:46:21.015Z,9.60
2023-04-15T21:48:33.681Z,11.40
2023-04-15T21:51:01.860Z,10.30
2023-04-15T21:53:29.280Z,9.50
2023-04-15T21:55:56.686Z,10.10
2023-04-15T21:58:24.056Z,9.60
2023-04-15T22:00:57.466Z,11.00
2023-04-15T22:03:25.041Z,9.90
2023-04-15T22:05:52.610Z,9.90
2023-04-15T22:08:19.909Z,9.50
2023-04-15T22:10:47.311Z,9.30
2023-04-15T22:13:14.685Z,10.10
2023-04-15T22:15:42.295Z,9.60
2023-04-15T22:18:11.076Z,9.60
2023-04-15T22:20:38.862Z,9.80
2023-04-15T22:23:08.879Z,9.70
2023-04-15T22:25:37.284Z,10.00
2023-04-15T22:28:09.237Z,9.60
2023-04-15T22:30:43.121Z,9.60
2023-04-15T22:33:10.932Z,9.40
2023-04-15T22:35:38.336Z,9.60
2023-04-15T22:38:05.764Z,9.80
2023-04-15T22:40:33.244Z,9.60
2023-04-15T22:43:00.697Z,9.50
2023-04-15T22:45:28.054Z,9.30
2023-04-15T22:47:55.834Z,9.50
2023-04-15T22:50:23.372Z,10.40
2023-04-15T22:52:50.857Z,9.50
2023-04-15T22:55:18.277Z,9.60
2023-04-15T22:57:45.672Z,9.50
2023-04-15T23:00:13.334Z,9.90
2023-04-15T23:02:40.772Z,9.60
2023-04-15T23:05:13.400Z,9.50
2023-04-15T23:07:41.114Z,9.50
2023-04-15T23:10:08.989Z,9.60
2023-04-15T23:12:36.355Z,9.50
2023-04-15T23:15:04.209Z,10.70
2023-04-15T23:17:31.638Z,9.50
2023-04-15T23:19:59.042Z,9.80
2023-04-15T23:22:26.357Z,9.50
2023-04-15T23:24:53.662Z,9.50
2023-04-15T23:27:21.041Z,10.50
2023-04-15T23:29:48.350Z,9.50
2023-04-15T23:32:15.798Z,9.50
2023-04-15T23:34:43.149Z,9.40
2023-04-15T23:37:10.496Z,9.40
2023-04-15T23:39:37.845Z,9.50
2023-04-15T23:42:05.203Z,9.40
2023-04-15T23:44:32.570Z,9.40
2023-04-15T23:46:59.898Z,9.40
2023-04-15T23:49:27.270Z,9.40
2023-04-15T23:51:54.693Z,9.40
2023-04-15T23:54:22.206Z,11.00
2023-04-15T23:56:49.520Z,9.90
2023-04-15T23:59:16.833Z,9.40
